createdAt,value
2023-04-27T00:01:47.597Z,4.80
2023-04-27T00:04:16.759Z,5.23
2023-04-27T00:06:44.777Z,5.10
2023-04-27T00:09:12.656Z,5.10
2023-04-27T00:11:40.456Z,5.33
2023-04-27T00:14:07.956Z,5.47
2023-04-27T00:16:35.550Z,5.60
2023-04-27T00:19:04.574Z,5.30
2023-04-27T00:21:32.094Z,4.90
2023-04-27T00:23:59.585Z,5.70
2023-04-27T00:26:27.670Z,5.33
2023-04-27T00:28:55.154Z,5.73
2023-04-27T00:31:22.635Z,5.47
2023-04-27T00:33:50.093Z,5.47
2023-04-27T00:36:18.882Z,5.40
2023-04-27T00:38:46.685Z,5.27
2023-04-27T00:41:14.198Z,5.53
2023-04-27T00:43:45.934Z,5.53
2023-04-27T00:46:14.183Z,5.80
2023-04-27T00:48:42.113Z,5.93
2023-04-27T00:51:09.644Z,5.53
2023-04-27T00:53:38.648Z,5.77
2023-04-27T00:56:06.442Z,5.93
2023-04-27T00:58:33.941Z,5.07
2023-04-27T01:01:02.058Z,5.63
2023-04-27T01:03:30.073Z,5.10
2023-04-27T01:06:00.116Z,4.87
2023-04-27T01:08:28.321Z,6.67
2023-04-27T01:10:57.210Z,5.50
2023-04-27T01:13:24.774Z,5.20
2023-04-27T01:15:52.280Z,5.40
2023-04-27T01:18:20.253Z,4.83
2023-04-27T01:20:48.010Z,5.27
2023-04-27T01:23:17.454Z,5.53
2023-04-27T01:25:45.341Z,5.30
2023-04-27T01:28:12.862Z,4.90
2023-04-27T01:30:40.323Z,5.30
2023-04-27T01:33:08.583Z,5.83
2023-04-27T01:35:36.176Z,5.00
2023-04-27T01:38:03.712Z,4.53
2023-04-27T01:40:32.544Z,4.93
2023-04-27T01:43:00.052Z,6.20
2023-04-27T01:45:27.519Z,4.90
2023-04-27T01:47:55.065Z,4.50
2023-04-27T01:50:22.611Z,5.50
2023-04-27T01:52:50.160Z,4.73
2023-04-27T01:55:17.976Z,5.33
2023-04-27T01:57:46.955Z,5.33
2023-04-27T02:00:15.548Z,5.20
2023-04-27T02:02:43.544Z,5.10
2023-04-27T02:05:11.084Z,6.20
2023-04-27T02:07:38.579Z,4.93
2023-04-27T02:10:07.060Z,4.60
2023-04-27T02:12:34.546Z,5.13
2023-04-27T02:15:04.013Z,5.07
2023-04-27T02:17:31.712Z,4.87
2023-04-27T02:19:59.377Z,4.63
2023-04-27T02:22:26.943Z,5.60
2023-04-27T02:24:54.531Z,4.70
2023-04-27T02:27:22.036Z,4.33
2023-04-27T02:29:49.985Z,4.70
2023-04-27T02:32:19.459Z,4.67
2023-04-27T02:34:48.578Z,5.30
2023-04-27T02:37:16.050Z,5.90
2023-04-27T02:39:43.497Z,5.00
2023-04-27T02:42:11.385Z,4.70
2023-04-27T02:44:38.901Z,4.87
2023-04-27T02:47:06.539Z,5.33
2023-04-27T02:49:37.966Z,5.10
2023-04-27T02:52:06.066Z,4.77
2023-04-27T02:54:34.129Z,5.17
2023-04-27T02:57:01.704Z,5.70
2023-04-27T02:59:29.138Z,4.80
2023-04-27T03:01:56.690Z,5.47
2023-04-27T03:04:24.223Z,5.30
2023-04-27T03:06:53.302Z,4.90
2023-04-27T03:09:21.269Z,4.97
2023-04-27T03:11:48.758Z,4.80
2023-04-27T03:14:16.202Z,5.43
2023-04-27T03:16:44.442Z,4.90
2023-04-27T03:19:12.488Z,5.83
2023-04-27T03:21:40.150Z,5.10
2023-04-27T03:24:09.121Z,4.70
2023-04-27T03:26:36.894Z,5.33
2023-04-27T03:29:04.347Z,5.17
2023-04-27T03:31:31.963Z,6.07
2023-04-27T03:33:59.467Z,5.70
2023-04-27T03:36:27.094Z,5.03
2023-04-27T03:38:54.915Z,5.63
2023-04-27T03:41:23.947Z,5.30
2023-04-27T03:43:53.394Z,4.80
2023-04-27T03:46:21.245Z,5.70
2023-04-27T03:48:48.710Z,5.60
2023-04-27T03:51:16.351Z,5.30
2023-04-27T03:53:43.793Z,4.83
2023-04-27T03:56:11.723Z,5.43
2023-04-27T03:58:40.738Z,5.17
2023-04-27T04:01:10.493Z,5.50
2023-04-27T04:03:39.307Z,4.87
2023-04-27T04:06:07.186Z,5.37
2023-04-27T04:08:34.673Z,5.83
2023-04-27T04:11:02.206Z,5.83
2023-04-27T04:13:30.010Z,6.27
2023-04-27T04:16:06.367Z,5.97
2023-04-27T04:18:33.983Z,6.20
2023-04-27T04:21:01.470Z,6.40
2023-04-27T04:23:28.916Z,6.20
2023-04-27T04:25:57.735Z,5.83
2023-04-27T04:28:25.727Z,5.70
2023-04-27T04:30:53.596Z,5.80
2023-04-27T04:33:22.433Z,5.53
2023-04-27T04:35:49.917Z,5.67
2023-04-27T04:38:17.316Z,6.10
2023-04-27T04:40:46.064Z,4.90
2023-04-27T04:43:13.769Z,5.47
2023-04-27T04:45:42.075Z,5.17
2023-04-27T04:48:10.348Z,6.90
2023-04-27T04:50:41.913Z,5.27
2023-04-27T04:53:09.442Z,5.87
2023-04-27T04:55:37.235Z,5.67
2023-04-27T04:58:04.698Z,5.30
2023-04-27T05:00:32.399Z,5.50
2023-04-27T05:03:01.174Z,4.70
2023-04-27T05:05:28.913Z,4.77
2023-04-27T05:07:57.733Z,5.20
2023-04-27T05:10:25.484Z,5.03
2023-04-27T05:12:52.950Z,4.73
2023-04-27T05:15:21.179Z,7.27
2023-04-27T05:17:49.037Z,5.73
2023-04-27T05:20:16.717Z,6.40
2023-04-27T05:22:44.615Z,4.93
2023-04-27T05:25:13.473Z,6.47
2023-04-27T05:27:41.176Z,5.67
2023-04-27T05:30:09.661Z,5.00
2023-04-27T05:32:37.954Z,4.33
2023-04-27T05:35:06.071Z,4.30
2023-04-27T05:37:33.562Z,4.30
2023-04-27T05:40:01.162Z,4.17
2023-04-27T05:42:30.266Z,3.70
2023-04-27T05:44:57.756Z,3.13
2023-04-27T05:47:25.294Z,4.87
2023-04-27T05:49:53.035Z,5.00
2023-04-27T05:52:20.535Z,4.57
2023-04-27T05:54:48.250Z,3.97
2023-04-27T05:57:16.124Z,3.60
2023-04-27T05:59:45.049Z,3.03
2023-04-27T06:02:12.560Z,2.97
2023-04-27T06:04:40.212Z,3.60
2023-04-27T06:07:10.227Z,4.30
2023-04-27T06:09:37.908Z,3.30
2023-04-27T06:12:05.886Z,3.37
2023-04-27T06:14:33.999Z,2.77
2023-04-27T06:17:02.790Z,2.97
2023-04-27T06:19:31.153Z,2.73
2023-04-27T06:21:58.652Z,3.13
2023-04-27T06:24:26.208Z,3.10
2023-04-27T06:26:54.569Z,2.43
2023-04-27T06:29:22.011Z,2.83
2023-04-27T06:31:49.566Z,2.80
2023-04-27T06:34:18.512Z,2.77
2023-04-27T06:36:46.406Z,2.70
2023-04-27T06:39:14.431Z,2.90
2023-04-27T06:41:42.614Z,2.57
2023-04-27T06:44:10.145Z,2.97
2023-04-27T06:46:37.873Z,3.07
2023-04-27T06:49:05.452Z,2.50
2023-04-27T06:51:34.389Z,2.50
2023-04-27T06:54:01.861Z,3.07
2023-04-27T06:56:29.311Z,2.97
2023-04-27T06:58:56.873Z,3.67
2023-04-27T07:01:25.039Z,3.50
2023-04-27T07:03:52.908Z,2.67
2023-04-27T07:06:20.642Z,2.83
2023-04-27T07:15:55.127Z,2.53
2023-04-27T07:18:25.510Z,2.63
2023-04-27T07:20:53.101Z,2.87
2023-04-27T07:23:20.646Z,2.13
2023-04-27T07:25:50.896Z,3.93
2023-04-27T07:28:20.789Z,3.17
2023-04-27T07:30:48.352Z,2.60
2023-04-27T07:33:20.121Z,2.60
2023-04-27T07:35:47.709Z,3.13
2023-04-27T07:38:29.384Z,2.93
2023-04-27T07:40:58.994Z,2.63
2023-04-27T07:43:27.083Z,3.57
2023-04-27T07:45:55.748Z,2.27
2023-04-27T07:48:28.109Z,3.53
2023-04-27T07:50:55.887Z,2.70
2023-04-27T07:53:27.557Z,3.07
2023-04-27T07:55:55.031Z,3.67
2023-04-27T08:03:19.957Z,2.13
2023-04-27T08:05:41.427Z,3.67
2023-04-27T08:11:22.099Z,2.20
2023-04-27T08:20:06.254Z,2.30
2023-04-27T08:22:55.687Z,3.60
2023-04-27T08:25:56.280Z,2.20
2023-04-27T08:29:15.353Z,2.77
2023-04-27T08:31:38.456Z,2.57
2023-04-27T08:34:06.210Z,2.70
2023-04-27T08:36:35.750Z,2.30
2023-04-27T08:39:05.996Z,2.40
2023-04-27T08:41:43.570Z,2.50
2023-04-27T08:44:18.366Z,1.73
2023-04-27T08:46:46.008Z,1.90
2023-04-27T08:49:16.514Z,3.10
2023-04-27T08:51:49.992Z,2.33
2023-04-27T08:54:18.071Z,2.73
2023-04-27T08:56:45.540Z,2.57
2023-04-27T08:59:17.237Z,2.93
2023-04-27T09:01:45.793Z,2.53
2023-04-27T09:04:13.601Z,2.27
2023-04-27T09:06:41.214Z,1.90
2023-04-27T09:09:11.403Z,1.97
2023-04-27T09:11:39.871Z,2.60
2023-04-27T09:14:17.249Z,2.87
2023-04-27T09:16:45.030Z,2.73
2023-04-27T09:19:13.284Z,2.50
2023-04-27T09:21:43.083Z,2.50
2023-04-27T09:24:12.861Z,2.80
2023-04-27T09:26:40.726Z,2.43
2023-04-27T09:29:09.492Z,1.83
2023-04-27T09:31:38.011Z,2.33
2023-04-27T09:34:05.582Z,2.73
2023-04-27T09:36:33.392Z,2.03
2023-04-27T09:39:04.436Z,2.57
2023-04-27T09:41:33.682Z,2.27
2023-04-27T09:44:01.854Z,2.77
2023-04-27T09:46:30.439Z,2.37
2023-04-27T09:48:59.943Z,2.47
2023-04-27T09:51:28.824Z,1.90
2023-04-27T09:53:58.270Z,2.50
2023-04-27T09:56:32.459Z,2.40
2023-04-27T09:59:10.668Z,2.03
2023-04-27T10:01:41.846Z,1.70
2023-04-27T10:04:17.714Z,3.00
2023-04-27T10:07:09.819Z,2.83
2023-04-27T10:09:37.975Z,2.50
2023-04-27T10:12:16.056Z,2.30
2023-04-27T10:14:51.868Z,2.37
2023-04-27T10:17:19.802Z,2.17
2023-04-27T10:19:58.481Z,2.57
2023-04-27T10:22:37.618Z,2.03
2023-04-27T10:25:13.602Z,2.13
2023-04-27T10:27:41.227Z,2.50
2023-04-27T10:30:12.068Z,2.67
2023-04-27T10:32:39.933Z,2.93
2023-04-27T10:35:10.009Z,2.30
2023-04-27T10:37:41.411Z,2.37
2023-04-27T10:40:10.276Z,2.77
2023-04-27T10:42:41.886Z,2.77
2023-04-27T10:45:12.535Z,2.10
2023-04-27T10:47:41.155Z,2.87
2023-04-27T10:50:13.428Z,2.50
2023-04-27T10:52:44.542Z,2.20
2023-04-27T10:55:18.908Z,2.57
2023-04-27T10:57:47.196Z,2.40
2023-04-27T11:00:17.602Z,2.00
2023-04-27T11:02:45.247Z,2.77
2023-04-27T11:05:18.318Z,2.60
2023-04-27T11:07:46.132Z,2.87
2023-04-27T11:10:16.635Z,3.10
2023-04-27T11:12:44.317Z,2.90
2023-04-27T11:15:12.564Z,2.07
2023-04-27T11:17:42.313Z,2.97
2023-04-27T11:20:10.488Z,2.43
2023-04-27T11:22:48.016Z,2.37
2023-04-27T11:25:16.089Z,2.43
2023-04-27T11:27:45.241Z,2.37
2023-04-27T11:30:22.964Z,2.00
2023-04-27T11:32:53.640Z,2.87
2023-04-27T11:35:21.389Z,3.00
2023-04-27T11:37:58.164Z,2.93
2023-04-27T11:40:25.797Z,3.13
2023-04-27T11:42:58.191Z,1.77
2023-04-27T11:45:26.515Z,2.23
2023-04-27T11:47:55.533Z,2.07
2023-04-27T11:50:24.992Z,2.97
2023-04-27T11:52:53.215Z,2.20
2023-04-27T11:55:21.661Z,1.83
2023-04-27T11:57:49.416Z,1.70
2023-04-27T12:00:17.363Z,2.83
2023-04-27T12:02:45.240Z,2.07
2023-04-27T12:05:14.823Z,1.70
2023-04-27T12:07:43.359Z,2.97
2023-04-27T12:10:11.405Z,2.50
2023-04-27T12:12:38.898Z,2.73
2023-04-27T12:15:08.793Z,1.93
2023-04-27T12:17:36.535Z,2.03
2023-04-27T12:20:04.482Z,2.43
2023-04-27T12:22:33.790Z,2.80
2023-04-27T12:25:01.728Z,2.63
2023-04-27T12:27:29.561Z,2.77
2023-04-27T12:29:59.584Z,2.33
2023-04-27T12:32:27.998Z,2.97
2023-04-27T12:34:55.930Z,2.77
2023-04-27T12:37:24.964Z,3.07
2023-04-27T12:39:56.048Z,2.10
2023-04-27T12:42:24.729Z,2.53
2023-04-27T12:44:52.491Z,2.03
2023-04-27T12:47:40.500Z,2.47
2023-04-27T12:50:09.661Z,3.07
2023-04-27T12:52:37.660Z,2.33
2023-04-27T12:55:15.222Z,2.27
2023-04-27T12:57:48.919Z,2.10
2023-04-27T13:00:16.758Z,2.87
2023-04-27T13:02:45.015Z,3.30
2023-04-27T13:05:12.665Z,1.93
2023-04-27T13:07:40.094Z,2.23
2023-04-27T13:10:09.463Z,2.10
2023-04-27T13:12:37.452Z,2.40
2023-04-27T13:15:05.290Z,2.60
2023-04-27T13:17:32.784Z,2.27
2023-04-27T13:20:00.298Z,2.10
2023-04-27T13:22:27.894Z,2.10
2023-04-27T13:24:55.658Z,2.63
2023-04-27T13:27:25.363Z,2.10
2023-04-27T13:29:52.866Z,2.90
2023-04-27T13:32:20.572Z,2.17
2023-04-27T13:34:48.041Z,2.20
2023-04-27T13:37:15.592Z,1.80
2023-04-27T13:39:44.140Z,2.27
2023-04-27T13:42:11.605Z,2.40
2023-04-27T13:44:40.676Z,1.83
2023-04-27T13:47:08.296Z,2.27
2023-04-27T13:49:36.090Z,2.63
2023-04-27T13:52:04.119Z,2.63
2023-04-27T13:54:32.109Z,3.10
2023-04-27T13:56:59.597Z,2.50
2023-04-27T13:59:27.834Z,2.10
2023-04-27T14:01:57.018Z,2.00
2023-04-27T14:04:24.577Z,2.87
2023-04-27T14:06:52.063Z,2.83
2023-04-27T14:09:20.442Z,2.47
2023-04-27T14:11:56.587Z,2.57
2023-04-27T14:14:25.463Z,2.97
2023-04-27T14:16:54.200Z,2.13
2023-04-27T14:19:23.219Z,3.27
2023-04-27T14:21:50.797Z,2.03
2023-04-27T14:24:18.945Z,2.10
2023-04-27T14:26:47.690Z,2.43
2023-04-27T14:29:15.459Z,2.30
2023-04-27T14:31:43.275Z,1.70
2023-04-27T14:34:11.341Z,2.57
2023-04-27T14:36:40.444Z,2.27
2023-04-27T14:39:09.461Z,2.30
2023-04-27T14:41:37.254Z,2.63
2023-04-27T14:44:07.123Z,2.83
2023-04-27T14:46:34.950Z,2.27
2023-04-27T14:49:02.642Z,2.83
2023-04-27T14:51:32.400Z,2.60
2023-04-27T14:54:02.349Z,2.93
2023-04-27T14:56:30.250Z,2.47
2023-04-27T14:58:58.196Z,2.23
2023-04-27T15:01:25.785Z,2.73
2023-04-27T15:03:54.499Z,2.27
2023-04-27T15:06:24.165Z,2.47
2023-04-27T15:08:52.354Z,2.63
2023-04-27T15:11:22.063Z,2.70
2023-04-27T15:13:50.062Z,2.20
2023-04-27T15:16:18.006Z,2.70
2023-04-27T15:18:45.602Z,2.43
2023-04-27T15:21:13.044Z,2.03
2023-04-27T15:23:40.558Z,2.77
2023-04-27T15:26:08.618Z,2.50
2023-04-27T15:28:38.486Z,3.00
2023-04-27T15:31:06.452Z,1.90
2023-04-27T15:33:34.817Z,2.43
2023-04-27T15:36:03.051Z,2.07
2023-04-27T15:38:30.835Z,2.67
2023-04-27T15:40:58.395Z,3.07
2023-04-27T15:43:26.046Z,2.50
2023-04-27T15:45:55.578Z,2.63
2023-04-27T15:48:23.380Z,2.37
2023-04-27T15:50:51.279Z,2.50
2023-04-27T15:53:19.047Z,2.07
2023-04-27T15:55:46.636Z,2.47
2023-04-27T15:58:14.452Z,4.13
2023-04-27T16:00:42.657Z,2.30
2023-04-27T16:03:14.280Z,2.40
2023-04-27T16:05:42.034Z,2.37
2023-04-27T16:08:10.182Z,2.30
2023-04-27T16:10:38.031Z,3.27
2023-04-27T16:13:05.561Z,2.27
2023-04-27T16:15:33.124Z,2.73
2023-04-27T16:18:00.749Z,2.20
2023-04-27T16:20:30.887Z,2.30
2023-04-27T16:22:58.579Z,2.50
2023-04-27T16:25:26.147Z,2.10
2023-04-27T16:27:53.599Z,3.23
2023-04-27T16:30:21.948Z,2.20
2023-04-27T16:32:49.802Z,2.47
2023-04-27T16:35:17.590Z,2.47
2023-04-27T16:37:46.658Z,2.50
2023-04-27T16:40:14.254Z,2.43
2023-04-27T16:42:41.801Z,2.40
2023-04-27T16:45:11.094Z,2.20
2023-04-27T16:47:38.897Z,2.33
2023-04-27T16:50:06.939Z,3.30
2023-04-27T16:52:40.216Z,2.50
2023-04-27T16:55:10.067Z,2.30
2023-04-27T17:04:40.069Z,3.13
2023-04-27T17:07:08.850Z,2.00
2023-04-27T17:09:37.280Z,2.30
2023-04-27T17:12:11.179Z,2.83
2023-04-27T17:14:39.141Z,2.00
2023-04-27T17:17:07.285Z,2.10
2023-04-27T17:19:34.914Z,1.93
2023-04-27T17:22:02.776Z,3.30
2023-04-27T17:24:30.211Z,2.67
2023-04-27T17:26:57.774Z,2.80
2023-04-27T17:29:26.644Z,2.63
2023-04-27T17:31:54.171Z,2.50
2023-04-27T17:34:22.474Z,2.53
2023-04-27T17:36:49.995Z,2.73
2023-04-27T17:39:17.658Z,2.57
2023-04-27T17:41:45.660Z,2.43
2023-04-27T17:44:13.907Z,2.73
2023-04-27T17:46:47.822Z,3.13
2023-04-27T17:49:16.321Z,2.50
2023-04-27T17:51:43.978Z,2.33
2023-04-27T17:54:12.371Z,2.70
2023-04-27T17:56:40.509Z,2.43
2023-04-27T17:59:09.037Z,3.13
2023-04-27T18:01:37.205Z,2.43
2023-04-27T18:04:09.040Z,2.47
2023-04-27T18:06:36.753Z,2.90
2023-04-27T18:09:06.429Z,2.23
2023-04-27T18:11:35.356Z,2.50
2023-04-27T18:14:03.829Z,2.87
2023-04-27T18:16:33.892Z,2.77
2023-04-27T18:19:02.997Z,2.50
2023-04-27T18:21:32.344Z,2.93
2023-04-27T18:23:59.802Z,2.60
2023-04-27T18:26:27.289Z,2.63
2023-04-27T18:28:54.809Z,2.50
2023-04-27T18:31:24.615Z,3.87
2023-04-27T18:33:53.858Z,3.50
2023-04-27T18:36:21.756Z,2.83
2023-04-27T18:38:53.613Z,3.37
2023-04-27T18:41:21.190Z,2.87
2023-04-27T18:43:48.704Z,3.10
2023-04-27T18:46:16.353Z,3.63
2023-04-27T18:48:43.861Z,2.93
2023-04-27T18:51:11.293Z,3.03
2023-04-27T18:53:38.856Z,3.53
2023-04-27T18:56:08.941Z,3.10
2023-04-27T18:58:37.026Z,3.27
2023-04-27T19:01:04.888Z,3.80
2023-04-27T19:03:32.942Z,3.50
2023-04-27T19:06:00.648Z,4.93
2023-04-27T19:08:28.500Z,2.97
2023-04-27T19:10:56.526Z,2.93
2023-04-27T19:13:25.917Z,3.20
2023-04-27T19:15:53.355Z,3.10
2023-04-27T19:18:21.011Z,2.97
2023-04-27T19:20:49.478Z,3.73
2023-04-27T19:23:19.225Z,3.43
2023-04-27T19:25:48.363Z,2.40
2023-04-27T19:28:18.764Z,2.53
2023-04-27T19:30:47.695Z,3.27
2023-04-27T19:33:15.648Z,2.50
2023-04-27T19:35:43.676Z,2.80
2023-04-27T19:38:11.310Z,3.10
2023-04-27T19:40:38.758Z,2.50
2023-04-27T19:43:07.110Z,3.00
2023-04-27T19:45:34.762Z,3.30
2023-04-27T19:48:03.638Z,3.00
2023-04-27T19:50:31.394Z,2.80
2023-04-27T19:52:58.909Z,3.20
2023-04-27T19:55:27.751Z,3.00
2023-04-27T19:58:10.723Z,3.60
2023-04-27T20:00:40.651Z,2.80
2023-04-27T20:03:09.710Z,3.23
2023-04-27T20:05:38.545Z,4.63
2023-04-27T20:08:06.415Z,3.00
2023-04-27T20:14:01.717Z,3.40
2023-04-27T20:16:29.178Z,3.73
2023-04-27T20:18:58.098Z,3.03
2023-04-27T20:21:26.307Z,3.23
2023-04-27T20:23:53.761Z,4.07
2023-04-27T20:26:21.386Z,3.40
2023-04-27T20:28:48.998Z,3.57
2023-04-27T20:31:16.532Z,4.13
2023-04-27T20:33:44.129Z,3.07
2023-04-27T20:38:43.238Z,3.67
2023-04-27T20:41:12.274Z,4.57
2023-04-27T20:43:40.213Z,3.40
2023-04-27T20:46:07.806Z,3.60
2023-04-27T20:48:35.558Z,3.73
2023-04-27T20:51:03.184Z,4.07
2023-04-27T20:53:32.030Z,3.57
2023-04-27T20:55:59.514Z,3.40
2023-04-27T20:58:27.135Z,3.43
2023-04-27T21:00:54.692Z,3.17
2023-04-27T21:03:22.993Z,3.17
2023-04-27T21:05:50.613Z,3.60
2023-04-27T21:08:18.289Z,3.37
2023-04-27T21:10:47.460Z,3.03
2023-04-27T21:13:14.964Z,3.40
2023-04-27T21:15:42.473Z,3.20
2023-04-27T21:18:18.869Z,4.17
2023-04-27T21:20:50.581Z,2.87
2023-04-27T21:23:19.480Z,3.33
2023-04-27T21:25:48.324Z,2.70
2023-04-27T21:28:15.853Z,2.70
2023-04-27T21:30:43.416Z,2.97
2023-04-27T21:33:11.148Z,3.20
2023-04-27T21:35:38.621Z,3.20
2023-04-27T21:38:06.266Z,3.63
2023-04-27T21:40:33.749Z,3.40
2023-04-27T21:43:03.598Z,2.70
2023-04-27T21:45:31.157Z,2.40
2023-04-27T21:47:58.888Z,3.63
2023-04-27T21:50:26.505Z,3.67
2023-04-27T21:52:54.632Z,2.80
2023-04-27T21:55:22.655Z,3.13
2023-04-27T21:57:50.364Z,3.67
2023-04-27T22:00:19.403Z,3.30
2023-04-27T22:02:47.068Z,2.57
2023-04-27T22:05:16.329Z,3.33
2023-04-27T22:07:47.675Z,2.77
2023-04-27T22:10:15.292Z,3.47
2023-04-27T22:12:44.121Z,3.07
2023-04-27T22:15:11.946Z,3.00
2023-04-27T22:17:40.931Z,2.90
2023-04-27T22:20:11.139Z,3.67
2023-04-27T22:22:38.805Z,2.90
2023-04-27T22:25:06.864Z,3.13
2023-04-27T22:27:42.163Z,3.30
2023-04-27T22:30:12.368Z,2.90
2023-04-27T22:32:41.748Z,2.70
2023-04-27T22:35:24.890Z,3.17
2023-04-27T22:37:55.285Z,3.63
2023-04-27T22:40:22.864Z,3.50
2023-04-27T22:42:50.763Z,3.47
2023-04-27T22:45:18.300Z,3.33
2023-04-27T22:47:49.248Z,2.70
2023-04-27T22:50:16.878Z,3.20
2023-04-27T22:52:44.588Z,3.33
2023-04-27T22:55:12.688Z,3.40
2023-04-27T22:57:40.679Z,3.93
2023-04-27T23:00:09.039Z,3.77
2023-04-27T23:02:36.639Z,3.40
2023-04-27T23:05:07.379Z,3.13
2023-04-27T23:07:34.946Z,3.60
2023-04-27T23:10:03.430Z,3.30
2023-04-27T23:12:31.361Z,3.00
2023-04-27T23:14:59.024Z,3.73
2023-04-27T23:17:30.884Z,3.10
2023-04-27T23:19:59.391Z,3.20
2023-04-27T23:22:28.474Z,3.40
2023-04-27T23:24:56.274Z,3.90
2023-04-27T23:27:24.950Z,3.20
2023-04-27T23:29:52.841Z,5.27
2023-04-27T23:32:20.711Z,3.20
2023-04-27T23:34:48.250Z,3.27
2023-04-27T23:37:15.753Z,3.50
2023-04-27T23:39:44.584Z,4.07
2023-04-27T23:42:12.047Z,3.87
2023-04-27T23:44:39.559Z,3.10
2023-04-27T23:47:07.287Z,3.50
2023-04-27T23:49:35.123Z,3.60
2023-04-27T23:52:02.590Z,4.20
2023-04-27T23:54:31.170Z,4.37
2023-04-27T23:57:00.118Z,3.93
2023-04-27T23:59:27.590Z,4.53
